Weather History for Tampa Knight Airport, FL

Change the Weather History Date:

Monday, January 13, 2014

  Actual Average (KTPA) Record (KTPA)
Temperature  
Mean Temperature 64 °F 60 °F  
Max Temperature 77 °F 70 °F 83 °F (1937)
Min Temperature 50 °F 51 °F 22 °F (1981)
Degree Days  
Heating Degree Days 2 6  
Month to date heating degree days 78  
Since 1 July heating degree days 261  
Cooling Degree Days 0 2  
Month to date cooling degree days 26  
Year to date cooling degree days 26  
Growing Degree Days 14 (Base 50)    
Moisture  
Dew Point 56 °F    
Average Humidity 81    
Maximum Humidity 94    
Minimum Humidity 61    
Precipitation  
Precipitation 0.00 in 0.07 in 1.57 in (1904)
Month to date precipitation 0.89  
Year to date precipitation 0.89  
Sea Level Pressure  
Sea Level Pressure 30.09 in    
Wind  
Wind Speed 6 mph (SE)    
Max Wind Speed 9 mph    
Max Gust Speed -    
Visibility 10 miles    
Events      
T = Trace of Precipitation, MM = Missing Value Source: NWS Daily Summary

Daily Weather History Graph

Daily Weather History Graph

Search for Another Location

Airport:

Trip Planner

Search our weather history database for the weather conditions in past years. The results will help you decide how hot, cold, wet, or windy it might be!

Date:

Astronomy

Jan. 13, 2014 Rise Set
Actual Time 7:22 AM EST 5:54 PM EST
Civil Twilight 6:57 AM EST 6:20 PM EST
Nautical Twilight 6:28 AM EST 6:49 PM EST
Astronomical Twilight 5:59 AM EST 7:17 PM EST
Moon 4:07 PM EST (1/13) 5:11 AM EST (1/13)
Length of Visible Light 11h 23m
Length of Day
10h 32m
Waxing Gibbous, 95% of the Moon is Illuminated
Jan 13
Waxing Gibbous
Jan 15
Full
Jan 24
Last Quarter
Jan 30
New
Feb 6
First Quarter

Hourly Weather History & Observations

Time (EST) Temp. Dew Point Humidity Pressure Visibility Wind Dir Wind Speed Gust Speed Precip Events Conditions
12:15 AM 51.8 °F 44.6 °F 76% 30.18 in 10.0 mi ENE 5.8 mph - N/A   Clear
12:35 AM 51.8 °F 44.6 °F 76% 30.17 in 10.0 mi ENE 6.9 mph - N/A   Clear
12:55 AM 51.8 °F 44.6 °F 76% 30.17 in 10.0 mi ENE 6.9 mph - N/A   Clear
1:15 AM 51.8 °F 46.4 °F 82% 30.16 in 10.0 mi ENE 6.9 mph - N/A   Clear
1:35 AM 51.8 °F 46.4 °F 82% 30.16 in 10.0 mi ENE 6.9 mph - N/A   Clear
1:55 AM 51.8 °F 46.4 °F 82% 30.16 in 10.0 mi ENE 8.1 mph - N/A   Clear
2:15 AM 51.8 °F 46.4 °F 82% 30.16 in 10.0 mi ENE 5.8 mph - N/A   Clear
2:35 AM 50.0 °F 46.4 °F 87% 30.15 in 10.0 mi ENE 6.9 mph - N/A   Clear
2:55 AM 50.0 °F 46.4 °F 87% 30.14 in 10.0 mi ENE 5.8 mph - N/A   Clear
3:15 AM 50.0 °F 46.4 °F 87% 30.15 in 10.0 mi ENE 5.8 mph - N/A   Clear
3:35 AM 50.0 °F 46.4 °F 87% 30.14 in 10.0 mi ENE 3.5 mph - N/A   Clear
3:55 AM 50.0 °F 46.4 °F 87% 30.14 in 10.0 mi NE 4.6 mph - N/A   Clear
4:15 AM 50.0 °F 46.4 °F 87% 30.14 in 10.0 mi ENE 6.9 mph - N/A   Clear
4:35 AM 50.0 °F 46.4 °F 87% 30.14 in 10.0 mi ENE 6.9 mph - N/A   Clear
4:55 AM 50.0 °F 46.4 °F 87% 30.14 in 10.0 mi ENE 5.8 mph - N/A   Clear
5:15 AM 50.0 °F 46.4 °F 87% 30.14 in 10.0 mi NE 3.5 mph - N/A   Clear
5:35 AM 50.0 °F 46.4 °F 87% 30.14 in 10.0 mi NE 3.5 mph - N/A   Clear
5:55 AM 50.0 °F 46.4 °F 87% 30.14 in 10.0 mi NNE 3.5 mph - N/A   Clear
6:15 AM 50.0 °F 46.4 °F 87% 30.14 in 10.0 mi NE 4.6 mph - N/A   Clear
6:35 AM 50.0 °F 46.4 °F 87% 30.13 in 10.0 mi NE 4.6 mph - N/A   Clear
6:55 AM 50.0 °F 46.4 °F 87% 30.14 in 10.0 mi NE 3.5 mph - N/A   Clear
7:15 AM 50.0 °F 46.4 °F 87% 30.14 in 10.0 mi ENE 4.6 mph - N/A   Clear
7:35 AM 50.0 °F 46.4 °F 87% 30.15 in 10.0 mi ENE 5.8 mph - N/A   Clear
7:55 AM 51.8 °F 46.4 °F 82% 30.15 in 10.0 mi East 8.1 mph - N/A   Clear
8:15 AM 53.6 °F 46.4 °F 77% 30.16 in 10.0 mi East 6.9 mph - N/A   Clear
8:35 AM 53.6 °F 48.2 °F 82% 30.16 in 10.0 mi ENE 3.5 mph - N/A   Clear
8:55 AM 55.4 °F 50.0 °F 82% 30.16 in 10.0 mi ENE 3.5 mph - N/A   Clear
9:15 AM 59.0 °F 51.8 °F 77% 30.16 in 10.0 mi East 4.6 mph - N/A   Scattered Clouds
9:35 AM 60.8 °F 53.6 °F 77% 30.16 in 10.0 mi ESE 5.8 mph - N/A   Clear
9:55 AM 62.6 °F 53.6 °F 72% 30.16 in 10.0 mi SE 6.9 mph - N/A   Scattered Clouds
10:15 AM 64.4 °F 55.4 °F 73% 30.16 in 10.0 mi ESE 6.9 mph - N/A   Scattered Clouds
10:35 AM 66.2 °F 57.2 °F 73% 30.16 in 10.0 mi SSE 4.6 mph - N/A   Scattered Clouds
10:55 AM 68.0 °F 59.0 °F 73% 30.15 in 10.0 mi SSE 6.9 mph - N/A   Mostly Cloudy
11:15 AM 69.8 °F 59.0 °F 68% 30.14 in 10.0 mi SSE 4.6 mph - N/A   Scattered Clouds
11:35 AM 69.8 °F 60.8 °F 73% 30.13 in 10.0 mi SSE 3.5 mph - N/A   Scattered Clouds
11:55 AM 71.6 °F 60.8 °F 69% 30.12 in 10.0 mi South 4.6 mph - N/A   Scattered Clouds
12:15 PM 73.4 °F 60.8 °F 65% 30.11 in 10.0 mi South 4.6 mph - N/A   Scattered Clouds
12:35 PM 73.4 °F 60.8 °F 65% 30.10 in 10.0 mi SSW 4.6 mph - N/A   Clear
12:55 PM 73.4 °F 62.6 °F 69% 30.09 in 10.0 mi SSW 4.6 mph - N/A   Clear
1:15 PM 75.2 °F 62.6 °F 65% 30.08 in 10.0 mi SSW 4.6 mph - N/A   Clear
1:35 PM 75.2 °F 62.6 °F 65% 30.07 in 10.0 mi SSW 4.6 mph - N/A   Clear
1:55 PM 71.6 °F 62.6 °F 73% 30.07 in 10.0 mi SW 6.9 mph - N/A   Scattered Clouds
2:15 PM 77.0 °F 62.6 °F 61% 30.06 in 10.0 mi North - - N/A   Scattered Clouds
2:35 PM 77.0 °F 64.4 °F 65% 30.05 in 10.0 mi SSW 8.1 mph - N/A   Clear
2:55 PM 75.2 °F 62.6 °F 65% 30.04 in 10.0 mi SSW 6.9 mph - N/A   Clear
3:15 PM 73.4 °F 62.6 °F 69% 30.04 in 10.0 mi SSW 6.9 mph - N/A   Clear
3:35 PM 73.4 °F 62.6 °F 69% 30.04 in 10.0 mi SW 9.2 mph - N/A   Clear
3:55 PM 73.4 °F 64.4 °F 73% 30.04 in 10.0 mi SW 9.2 mph - N/A   Clear
4:15 PM 73.4 °F 62.6 °F 69% 30.04 in 10.0 mi SW 8.1 mph - N/A   Clear
4:35 PM 71.6 °F 64.4 °F 78% 30.04 in 10.0 mi SW 8.1 mph - N/A   Scattered Clouds
4:55 PM 71.6 °F 64.4 °F 78% 30.04 in 10.0 mi SW 8.1 mph - N/A   Scattered Clouds
5:15 PM 71.6 °F 64.4 °F 78% 30.04 in 10.0 mi WSW 6.9 mph - N/A   Scattered Clouds
5:35 PM 69.8 °F 64.4 °F 83% 30.03 in 10.0 mi SW 5.8 mph - N/A   Clear
5:55 PM 68.0 °F 62.6 °F 83% 30.03 in 10.0 mi SW 6.9 mph - N/A   Clear
6:15 PM 68.0 °F 62.6 °F 83% 30.04 in 10.0 mi SW 5.8 mph - N/A   Clear
6:35 PM 66.2 °F 62.6 °F 88% 30.03 in 10.0 mi SSW 4.6 mph - N/A   Clear
6:55 PM 66.2 °F 62.6 °F 88% 30.03 in 10.0 mi SW 3.5 mph - N/A   Clear
7:15 PM 66.2 °F 62.6 °F 88% 30.03 in 10.0 mi Calm Calm - N/A   Clear
7:35 PM 64.4 °F 62.6 °F 94% 30.03 in 10.0 mi Calm Calm - N/A   Clear
7:55 PM 64.4 °F 62.6 °F 94% 30.04 in 10.0 mi Calm Calm - N/A   Clear
8:15 PM 64.4 °F 62.6 °F 94% 30.04 in 10.0 mi SW 3.5 mph - N/A   Mostly Cloudy
8:35 PM 64.4 °F 62.6 °F 94% 30.04 in 10.0 mi Calm Calm - N/A   Overcast
8:55 PM 64.4 °F 62.6 °F 94% 30.03 in 10.0 mi Calm Calm - N/A   Scattered Clouds
9:15 PM 64.4 °F 62.6 °F 94% 30.02 in 10.0 mi SSE 3.5 mph - N/A   Clear
9:35 PM 68.0 °F 64.4 °F 88% 30.02 in 10.0 mi South 4.6 mph - N/A   Clear
9:55 PM 68.0 °F 64.4 °F 88% 30.02 in 10.0 mi SSE 5.8 mph - N/A   Scattered Clouds
10:15 PM 68.0 °F 64.4 °F 88% 30.01 in 10.0 mi South 8.1 mph - N/A   Scattered Clouds
10:35 PM 68.0 °F 64.4 °F 88% 30.01 in 10.0 mi South 9.2 mph - N/A   Mostly Cloudy
10:55 PM 68.0 °F 64.4 °F 88% 30.00 in 10.0 mi SSW 8.1 mph - N/A   Overcast
11:15 PM 66.2 °F 64.4 °F 94% 30.00 in 10.0 mi SSW 6.9 mph - N/A   Overcast
11:35 PM 66.2 °F 64.4 °F 94% 29.99 in 10.0 mi SSW 6.9 mph - N/A   Overcast
11:55 PM 66.2 °F 64.4 °F 94% 29.98 in 10.0 mi SSW 4.6 mph - N/A   Overcast